sensor_id;sensor_type;location;lat;lon;timestamp;temperature;humidity
2751;DHT22;1383;48.362;10.908;2022-09-21T00:01:11;9.00;70.90
2751;DHT22;1383;48.362;10.908;2022-09-21T00:03:38;9.00;70.50
2751;DHT22;1383;48.362;10.908;2022-09-21T00:06:17;8.90;69.80
2751;DHT22;1383;48.362;10.908;2022-09-21T00:08:45;8.80;70.00
2751;DHT22;1383;48.362;10.908;2022-09-21T00:11:15;8.70;71.10
2751;DHT22;1383;48.362;10.908;2022-09-21T00:13:42;8.60;72.10
2751;DHT22;1383;48.362;10.908;2022-09-21T00:16:09;8.60;73.00
2751;DHT22;1383;48.362;10.908;2022-09-21T00:18:36;8.70;73.50
2751;DHT22;1383;48.362;10.908;2022-09-21T00:21:08;8.60;73.20
2751;DHT22;1383;48.362;10.908;2022-09-21T00:23:36;8.60;73.30
2751;DHT22;1383;48.362;10.908;2022-09-21T00:26:05;8.60;73.40
2751;DHT22;1383;48.362;10.908;2022-09-21T00:28:33;8.50;73.70
2751;DHT22;1383;48.362;10.908;2022-09-21T00:31:02;8.50;73.70
2751;DHT22;1383;48.362;10.908;2022-09-21T00:33:29;8.40;74.10
2751;DHT22;1383;48.362;10.908;2022-09-21T00:36:04;8.40;75.10
2751;DHT22;1383;48.362;10.908;2022-09-21T00:38:31;8.30;74.50
2751;DHT22;1383;48.362;10.908;2022-09-21T00:40:59;8.30;75.00
2751;DHT22;1383;48.362;10.908;2022-09-21T00:43:25;8.30;75.10
2751;DHT22;1383;48.362;10.908;2022-09-21T00:46:09;8.40;75.20
2751;DHT22;1383;48.362;10.908;2022-09-21T00:48:39;8.40;74.40
2751;DHT22;1383;48.362;10.908;2022-09-21T00:51:07;8.40;75.20
2751;DHT22;1383;48.362;10.908;2022-09-21T00:53:35;8.40;73.80
2751;DHT22;1383;48.362;10.908;2022-09-21T00:56:04;8.30;74.80
2751;DHT22;1383;48.362;10.908;2022-09-21T00:58:39;8.20;75.40
2751;DHT22;1383;48.362;10.908;2022-09-21T01:01:06;8.30;76.40
2751;DHT22;1383;48.362;10.908;2022-09-21T01:03:33;8.30;75.60
2751;DHT22;1383;48.362;10.908;2022-09-21T01:06:00;8.20;75.90
2751;DHT22;1383;48.362;10.908;2022-09-21T01:08:27;8.20;76.40
2751;DHT22;1383;48.362;10.908;2022-09-21T01:14:19;8.20;75.20
2751;DHT22;1383;48.362;10.908;2022-09-21T01:25:28;8.10;75.60
2751;DHT22;1383;48.362;10.908;2022-09-21T01:30:32;8.00;76.40
2751;DHT22;1383;48.362;10.908;2022-09-21T01:33:16;8.10;76.70
2751;DHT22;1383;48.362;10.908;2022-09-21T01:35:55;8.10;76.10
2751;DHT22;1383;48.362;10.908;2022-09-21T01:38:25;7.90;75.30
2751;DHT22;1383;48.362;10.908;2022-09-21T01:40:58;7.80;75.50
2751;DHT22;1383;48.362;10.908;2022-09-21T01:43:31;7.80;76.00
2751;DHT22;1383;48.362;10.908;2022-09-21T01:46:00;7.70;75.50
2751;DHT22;1383;48.362;10.908;2022-09-21T01:48:33;7.60;77.30
2751;DHT22;1383;48.362;10.908;2022-09-21T01:51:02;7.70;77.30
2751;DHT22;1383;48.362;10.908;2022-09-21T01:53:48;7.60;77.20
2751;DHT22;1383;48.362;10.908;2022-09-21T01:59:18;7.60;77.30
2751;DHT22;1383;48.362;10.908;2022-09-21T02:01:58;7.60;77.20
2751;DHT22;1383;48.362;10.908;2022-09-21T02:04:26;7.60;77.30
2751;DHT22;1383;48.362;10.908;2022-09-21T02:06:53;7.50;77.20
2751;DHT22;1383;48.362;10.908;2022-09-21T02:09:22;7.40;77.90
2751;DHT22;1383;48.362;10.908;2022-09-21T02:11:49;7.40;78.10
2751;DHT22;1383;48.362;10.908;2022-09-21T02:14:19;7.40;77.80
2751;DHT22;1383;48.362;10.908;2022-09-21T02:16:51;7.30;78.60
2751;DHT22;1383;48.362;10.908;2022-09-21T02:22:44;7.20;78.40
2751;DHT22;1383;48.362;10.908;2022-09-21T02:25:20;7.30;78.30
2751;DHT22;1383;48.362;10.908;2022-09-21T02:30:23;7.30;76.20
2751;DHT22;1383;48.362;10.908;2022-09-21T02:38:46;7.10;77.20
2751;DHT22;1383;48.362;10.908;2022-09-21T02:41:29;7.10;76.20
2751;DHT22;1383;48.362;10.908;2022-09-21T02:44:05;7.00;76.20
2751;DHT22;1383;48.362;10.908;2022-09-21T02:46:52;6.90;77.00
2751;DHT22;1383;48.362;10.908;2022-09-21T02:49:25;7.00;78.00
2751;DHT22;1383;48.362;10.908;2022-09-21T02:51:57;7.00;77.50
2751;DHT22;1383;48.362;10.908;2022-09-21T02:54:29;7.00;77.70
2751;DHT22;1383;48.362;10.908;2022-09-21T02:56:57;7.00;77.90
2751;DHT22;1383;48.362;10.908;2022-09-21T02:59:26;7.00;78.50
2751;DHT22;1383;48.362;10.908;2022-09-21T03:01:53;7.00;77.40
2751;DHT22;1383;48.362;10.908;2022-09-21T03:04:21;7.00;77.20
2751;DHT22;1383;48.362;10.908;2022-09-21T03:06:49;7.00;77.20
2751;DHT22;1383;48.362;10.908;2022-09-21T03:09:15;7.00;76.90
2751;DHT22;1383;48.362;10.908;2022-09-21T03:11:42;6.80;77.20
2751;DHT22;1383;48.362;10.908;2022-09-21T03:14:09;6.80;78.10
2751;DHT22;1383;48.362;10.908;2022-09-21T03:16:37;6.90;77.80
2751;DHT22;1383;48.362;10.908;2022-09-21T03:19:04;6.80;78.60
2751;DHT22;1383;48.362;10.908;2022-09-21T03:21:31;6.80;76.70
2751;DHT22;1383;48.362;10.908;2022-09-21T03:23:58;6.80;76.10
2751;DHT22;1383;48.362;10.908;2022-09-21T03:26:24;6.80;76.10
2751;DHT22;1383;48.362;10.908;2022-09-21T03:28:51;6.80;76.50
2751;DHT22;1383;48.362;10.908;2022-09-21T03:31:20;6.80;76.20
2751;DHT22;1383;48.362;10.908;2022-09-21T03:33:47;6.80;76.00
2751;DHT22;1383;48.362;10.908;2022-09-21T03:36:15;6.80;76.50
2751;DHT22;1383;48.362;10.908;2022-09-21T03:38:42;6.70;76.40
2751;DHT22;1383;48.362;10.908;2022-09-21T03:41:09;6.60;76.40
2751;DHT22;1383;48.362;10.908;2022-09-21T03:43:36;6.70;76.60
2751;DHT22;1383;48.362;10.908;2022-09-21T03:46:03;6.70;76.20
2751;DHT22;1383;48.362;10.908;2022-09-21T03:48:30;6.50;76.30
2751;DHT22;1383;48.362;10.908;2022-09-21T03:50:58;6.60;76.80
2751;DHT22;1383;48.362;10.908;2022-09-21T03:53:24;6.60;76.30
2751;DHT22;1383;48.362;10.908;2022-09-21T03:55:51;6.60;76.30
2751;DHT22;1383;48.362;10.908;2022-09-21T03:58:18;6.50;77.10
2751;DHT22;1383;48.362;10.908;2022-09-21T04:00:45;6.50;77.10
2751;DHT22;1383;48.362;10.908;2022-09-21T04:03:12;6.40;77.20
2751;DHT22;1383;48.362;10.908;2022-09-21T04:05:39;6.40;77.70
2751;DHT22;1383;48.362;10.908;2022-09-21T04:08:05;6.50;78.00
2751;DHT22;1383;48.362;10.908;2022-09-21T04:10:32;6.40;77.90
2751;DHT22;1383;48.362;10.908;2022-09-21T04:13:00;6.50;77.90
2751;DHT22;1383;48.362;10.908;2022-09-21T04:15:28;6.50;76.70
2751;DHT22;1383;48.362;10.908;2022-09-21T04:17:55;6.50;76.70
2751;DHT22;1383;48.362;10.908;2022-09-21T04:20:23;6.40;75.60
2751;DHT22;1383;48.362;10.908;2022-09-21T04:22:50;6.40;75.40
2751;DHT22;1383;48.362;10.908;2022-09-21T04:25:18;6.40;75.60
2751;DHT22;1383;48.362;10.908;2022-09-21T04:27:45;6.30;75.20
2751;DHT22;1383;48.362;10.908;2022-09-21T04:30:13;6.30;75.10
2751;DHT22;1383;48.362;10.908;2022-09-21T04:32:40;6.30;75.00
2751;DHT22;1383;48.362;10.908;2022-09-21T04:35:07;6.20;75.70
2751;DHT22;1383;48.362;10.908;2022-09-21T04:37:34;6.20;76.00
2751;DHT22;1383;48.362;10.908;2022-09-21T04:40:02;6.10;76.50
2751;DHT22;1383;48.362;10.908;2022-09-21T04:42:30;6.10;77.00
2751;DHT22;1383;48.362;10.908;2022-09-21T04:44:56;6.20;76.90
2751;DHT22;1383;48.362;10.908;2022-09-21T04:47:23;6.20;76.80
2751;DHT22;1383;48.362;10.908;2022-09-21T04:49:50;6.20;77.30
2751;DHT22;1383;48.362;10.908;2022-09-21T04:52:18;6.20;77.70
2751;DHT22;1383;48.362;10.908;2022-09-21T04:54:46;6.20;76.70
2751;DHT22;1383;48.362;10.908;2022-09-21T04:57:13;6.20;76.40
2751;DHT22;1383;48.362;10.908;2022-09-21T04:59:40;6.10;76.60
2751;DHT22;1383;48.362;10.908;2022-09-21T05:02:07;6.20;77.70
2751;DHT22;1383;48.362;10.908;2022-09-21T05:04:34;6.20;77.00
2751;DHT22;1383;48.362;10.908;2022-09-21T05:07:01;6.20;77.60
2751;DHT22;1383;48.362;10.908;2022-09-21T05:09:28;6.20;77.00
2751;DHT22;1383;48.362;10.908;2022-09-21T05:12:13;6.20;76.40
2751;DHT22;1383;48.362;10.908;2022-09-21T05:14:40;6.20;76.10
2751;DHT22;1383;48.362;10.908;2022-09-21T05:17:10;6.10;76.30
2751;DHT22;1383;48.362;10.908;2022-09-21T05:19:37;6.20;76.70
2751;DHT22;1383;48.362;10.908;2022-09-21T05:22:04;6.20;76.40
2751;DHT22;1383;48.362;10.908;2022-09-21T05:24:31;6.20;76.40
2751;DHT22;1383;48.362;10.908;2022-09-21T05:26:57;6.20;76.80
2751;DHT22;1383;48.362;10.908;2022-09-21T05:29:25;6.20;77.20
2751;DHT22;1383;48.362;10.908;2022-09-21T05:32:02;6.30;77.50
2751;DHT22;1383;48.362;10.908;2022-09-21T05:34:52;6.30;77.40
2751;DHT22;1383;48.362;10.908;2022-09-21T05:37:31;6.30;76.90
2751;DHT22;1383;48.362;10.908;2022-09-21T05:39:59;6.40;76.90
2751;DHT22;1383;48.362;10.908;2022-09-21T05:42:26;6.40;76.80
2751;DHT22;1383;48.362;10.908;2022-09-21T05:44:53;6.50;76.60
2751;DHT22;1383;48.362;10.908;2022-09-21T05:53:35;6.70;75.70
2751;DHT22;1383;48.362;10.908;2022-09-21T05:55:52;6.80;75.50
2751;DHT22;1383;48.362;10.908;2022-09-21T05:58:55;6.80;75.30
2751;DHT22;1383;48.362;10.908;2022-09-21T06:04:12;6.90;76.00
2751;DHT22;1383;48.362;10.908;2022-09-21T06:06:39;6.90;76.10
2751;DHT22;1383;48.362;10.908;2022-09-21T06:09:06;7.00;76.30
2751;DHT22;1383;48.362;10.908;2022-09-21T06:11:33;7.00;76.60
2751;DHT22;1383;48.362;10.908;2022-09-21T06:14:00;7.00;77.60
2751;DHT22;1383;48.362;10.908;2022-09-21T06:16:41;7.10;77.80
2751;DHT22;1383;48.362;10.908;2022-09-21T06:19:12;7.30;77.60
2751;DHT22;1383;48.362;10.908;2022-09-21T06:21:39;7.30;77.50
2751;DHT22;1383;48.362;10.908;2022-09-21T06:24:05;7.50;77.60
2751;DHT22;1383;48.362;10.908;2022-09-21T06:26:32;7.70;77.80
2751;DHT22;1383;48.362;10.908;2022-09-21T06:28:59;7.90;76.80
2751;DHT22;1383;48.362;10.908;2022-09-21T06:31:26;7.90;76.00
2751;DHT22;1383;48.362;10.908;2022-09-21T06:33:53;8.10;75.70
2751;DHT22;1383;48.362;10.908;2022-09-21T06:36:20;8.20;75.10
2751;DHT22;1383;48.362;10.908;2022-09-21T06:38:47;8.50;75.10
2751;DHT22;1383;48.362;10.908;2022-09-21T06:41:13;8.70;75.10
2751;DHT22;1383;48.362;10.908;2022-09-21T06:43:46;9.10;74.40
2751;DHT22;1383;48.362;10.908;2022-09-21T06:46:13;9.40;73.10
2751;DHT22;1383;48.362;10.908;2022-09-21T06:48:40;9.70;70.70
2751;DHT22;1383;48.362;10.908;2022-09-21T06:51:07;10.10;67.90
2751;DHT22;1383;48.362;10.908;2022-09-21T06:53:33;10.40;65.80
2751;DHT22;1383;48.362;10.908;2022-09-21T06:56:02;10.70;64.20
2751;DHT22;1383;48.362;10.908;2022-09-21T06:58:30;11.10;61.70
2751;DHT22;1383;48.362;10.908;2022-09-21T07:00:57;11.30;58.50
2751;DHT22;1383;48.362;10.908;2022-09-21T07:03:24;11.60;57.50
2751;DHT22;1383;48.362;10.908;2022-09-21T07:05:51;12.00;56.20
2751;DHT22;1383;48.362;10.908;2022-09-21T07:08:18;12.30;54.10
2751;DHT22;1383;48.362;10.908;2022-09-21T07:11:05;12.40;51.80
2751;DHT22;1383;48.362;10.908;2022-09-21T07:13:32;12.50;52.20
2751;DHT22;1383;48.362;10.908;2022-09-21T07:16:02;12.70;52.10
2751;DHT22;1383;48.362;10.908;2022-09-21T07:18:32;13.00;50.50
2751;DHT22;1383;48.362;10.908;2022-09-21T07:21:10;13.10;50.60
2751;DHT22;1383;48.362;10.908;2022-09-21T07:23:37;13.50;48.90
2751;DHT22;1383;48.362;10.908;2022-09-21T07:26:06;13.70;47.50
2751;DHT22;1383;48.362;10.908;2022-09-21T07:28:34;13.60;47.00
2751;DHT22;1383;48.362;10.908;2022-09-21T07:31:06;13.60;48.10
2751;DHT22;1383;48.362;10.908;2022-09-21T07:33:35;13.50;46.70
2751;DHT22;1383;48.362;10.908;2022-09-21T07:36:02;13.60;47.10
2751;DHT22;1383;48.362;10.908;2022-09-21T07:38:40;13.80;48.00
2751;DHT22;1383;48.362;10.908;2022-09-21T07:41:10;14.10;46.90
2751;DHT22;1383;48.362;10.908;2022-09-21T07:43:38;14.20;46.80
2751;DHT22;1383;48.362;10.908;2022-09-21T07:46:07;14.20;46.10
2751;DHT22;1383;48.362;10.908;2022-09-21T07:48:34;14.30;46.20
2751;DHT22;1383;48.362;10.908;2022-09-21T07:51:02;14.40;46.20
2751;DHT22;1383;48.362;10.908;2022-09-21T07:53:36;14.70;46.20
2751;DHT22;1383;48.362;10.908;2022-09-21T07:56:07;15.10;45.10
2751;DHT22;1383;48.362;10.908;2022-09-21T07:58:35;14.90;43.90
2751;DHT22;1383;48.362;10.908;2022-09-21T08:01:22;14.60;45.00
2751;DHT22;1383;48.362;10.908;2022-09-21T08:03:50;14.50;45.80
2751;DHT22;1383;48.362;10.908;2022-09-21T08:06:18;14.60;45.00
2751;DHT22;1383;48.362;10.908;2022-09-21T08:08:45;14.80;45.60
2751;DHT22;1383;48.362;10.908;2022-09-21T08:11:15;15.10;44.90
2751;DHT22;1383;48.362;10.908;2022-09-21T08:13:42;15.50;44.80
2751;DHT22;1383;48.362;10.908;2022-09-21T08:16:09;15.90;43.40
2751;DHT22;1383;48.362;10.908;2022-09-21T08:18:37;16.10;41.60
2751;DHT22;1383;48.362;10.908;2022-09-21T08:21:06;15.90;40.70
2751;DHT22;1383;48.362;10.908;2022-09-21T08:23:33;15.80;41.60
2751;DHT22;1383;48.362;10.908;2022-09-21T08:26:04;15.70;41.90
2751;DHT22;1383;48.362;10.908;2022-09-21T08:28:34;16.30;40.90
2751;DHT22;1383;48.362;10.908;2022-09-21T08:31:05;16.10;38.90
2751;DHT22;1383;48.362;10.908;2022-09-21T08:33:36;15.40;40.70
2751;DHT22;1383;48.362;10.908;2022-09-21T08:36:03;15.70;41.70
2751;DHT22;1383;48.362;10.908;2022-09-21T08:38:34;15.90;40.60
2751;DHT22;1383;48.362;10.908;2022-09-21T08:41:21;15.80;39.80
2751;DHT22;1383;48.362;10.908;2022-09-21T08:44:04;15.50;40.90
2751;DHT22;1383;48.362;10.908;2022-09-21T08:46:35;15.50;41.30
2751;DHT22;1383;48.362;10.908;2022-09-21T08:49:10;15.40;41.70
2751;DHT22;1383;48.362;10.908;2022-09-21T08:52:01;15.80;40.80
2751;DHT22;1383;48.362;10.908;2022-09-21T08:54:59;15.80;38.90
2751;DHT22;1383;48.362;10.908;2022-09-21T08:57:31;16.30;39.50
2751;DHT22;1383;48.362;10.908;2022-09-21T09:00:11;16.40;38.10
2751;DHT22;1383;48.362;10.908;2022-09-21T09:05:37;15.80;38.10
2751;DHT22;1383;48.362;10.908;2022-09-21T09:22:12;15.30;38.20
2751;DHT22;1383;48.362;10.908;2022-09-21T09:24:45;15.10;38.90
2751;DHT22;1383;48.362;10.908;2022-09-21T09:27:24;15.20;38.00
2751;DHT22;1383;48.362;10.908;2022-09-21T09:30:04;14.80;36.60
2751;DHT22;1383;48.362;10.908;2022-09-21T09:32:43;14.30;37.10
2751;DHT22;1383;48.362;10.908;2022-09-21T09:38:38;14.30;37.30
2751;DHT22;1383;48.362;10.908;2022-09-21T09:51:38;15.00;38.40
2751;DHT22;1383;48.362;10.908;2022-09-21T09:54:12;15.20;35.80
2751;DHT22;1383;48.362;10.908;2022-09-21T09:56:40;15.10;35.40
2751;DHT22;1383;48.362;10.908;2022-09-21T09:59:18;15.20;33.90
2751;DHT22;1383;48.362;10.908;2022-09-21T10:02:02;15.30;34.00
2751;DHT22;1383;48.362;10.908;2022-09-21T10:04:29;15.20;34.10
2751;DHT22;1383;48.362;10.908;2022-09-21T10:06:57;15.20;33.90
2751;DHT22;1383;48.362;10.908;2022-09-21T10:09:31;15.20;33.20
2751;DHT22;1383;48.362;10.908;2022-09-21T10:12:24;15.20;33.40
2751;DHT22;1383;48.362;10.908;2022-09-21T10:14:52;15.20;33.10
2751;DHT22;1383;48.362;10.908;2022-09-21T10:17:23;15.20;33.80
2751;DHT22;1383;48.362;10.908;2022-09-21T10:19:59;15.20;33.30
2751;DHT22;1383;48.362;10.908;2022-09-21T10:22:27;14.80;34.30
2751;DHT22;1383;48.362;10.908;2022-09-21T10:24:55;14.70;35.50
2751;DHT22;1383;48.362;10.908;2022-09-21T10:27:32;14.80;35.60
2751;DHT22;1383;48.362;10.908;2022-09-21T10:30:00;14.70;34.90
2751;DHT22;1383;48.362;10.908;2022-09-21T10:32:27;14.70;35.30
2751;DHT22;1383;48.362;10.908;2022-09-21T10:35:21;14.50;34.30
2751;DHT22;1383;48.362;10.908;2022-09-21T10:37:48;14.50;33.10
2751;DHT22;1383;48.362;10.908;2022-09-21T10:40:36;14.60;33.30
2751;DHT22;1383;48.362;10.908;2022-09-21T10:43:03;14.80;34.00
2751;DHT22;1383;48.362;10.908;2022-09-21T10:45:34;14.90;33.80
2751;DHT22;1383;48.362;10.908;2022-09-21T10:48:15;14.90;34.50
2751;DHT22;1383;48.362;10.908;2022-09-21T10:50:45;14.90;34.20
2751;DHT22;1383;48.362;10.908;2022-09-21T10:53:23;14.50;34.90
2751;DHT22;1383;48.362;10.908;2022-09-21T10:56:05;14.40;35.70
2751;DHT22;1383;48.362;10.908;2022-09-21T11:01:42;14.60;34.50
2751;DHT22;1383;48.362;10.908;2022-09-21T11:04:42;14.30;32.40
2751;DHT22;1383;48.362;10.908;2022-09-21T11:07:22;14.40;33.30
2751;DHT22;1383;48.362;10.908;2022-09-21T11:09:56;14.20;34.80
2751;DHT22;1383;48.362;10.908;2022-09-21T11:15:50;14.20;34.70
2751;DHT22;1383;48.362;10.908;2022-09-21T11:24:12;13.80;35.60
2751;DHT22;1383;48.362;10.908;2022-09-21T11:26:51;13.80;35.60
2751;DHT22;1383;48.362;10.908;2022-09-21T11:29:25;14.00;36.30
2751;DHT22;1383;48.362;10.908;2022-09-21T11:32:01;13.90;35.10
2751;DHT22;1383;48.362;10.908;2022-09-21T11:40:54;14.10;33.90
2751;DHT22;1383;48.362;10.908;2022-09-21T11:51:45;13.90;35.90
2751;DHT22;1383;48.362;10.908;2022-09-21T11:57:32;13.80;35.20
2751;DHT22;1383;48.362;10.908;2022-09-21T12:00:17;13.70;36.00
2751;DHT22;1383;48.362;10.908;2022-09-21T12:03:14;13.70;35.50
2751;DHT22;1383;48.362;10.908;2022-09-21T12:08:48;13.70;35.60
2751;DHT22;1383;48.362;10.908;2022-09-21T12:17:05;13.90;33.80
2751;DHT22;1383;48.362;10.908;2022-09-21T12:20:04;13.80;32.60
2751;DHT22;1383;48.362;10.908;2022-09-21T12:22:44;13.90;32.70
2751;DHT22;1383;48.362;10.908;2022-09-21T12:25:22;14.00;32.80
2751;DHT22;1383;48.362;10.908;2022-09-21T12:30:52;14.00;30.80
2751;DHT22;1383;48.362;10.908;2022-09-21T12:39:10;14.30;29.60
2751;DHT22;1383;48.362;10.908;2022-09-21T12:41:46;14.40;27.90
2751;DHT22;1383;48.362;10.908;2022-09-21T12:44:24;14.40;28.90
2751;DHT22;1383;48.362;10.908;2022-09-21T12:47:08;14.50;29.40
2751;DHT22;1383;48.362;10.908;2022-09-21T12:49:47;14.60;29.90
2751;DHT22;1383;48.362;10.908;2022-09-21T12:52:21;14.70;30.70
2751;DHT22;1383;48.362;10.908;2022-09-21T12:55:47;14.90;29.80
2751;DHT22;1383;48.362;10.908;2022-09-21T13:01:51;15.30;29.50
2751;DHT22;1383;48.362;10.908;2022-09-21T13:04:00;15.20;28.80
2751;DHT22;1383;48.362;10.908;2022-09-21T13:07:05;15.00;27.70
2751;DHT22;1383;48.362;10.908;2022-09-21T13:09:40;15.00;28.30
2751;DHT22;1383;48.362;10.908;2022-09-21T13:12:09;14.90;28.20
2751;DHT22;1383;48.362;10.908;2022-09-21T13:14:47;14.90;26.30
2751;DHT22;1383;48.362;10.908;2022-09-21T13:17:29;14.90;26.50
2751;DHT22;1383;48.362;10.908;2022-09-21T13:20:05;15.00;27.10
2751;DHT22;1383;48.362;10.908;2022-09-21T13:22:34;15.10;28.30
2751;DHT22;1383;48.362;10.908;2022-09-21T13:28:05;15.00;28.00
2751;DHT22;1383;48.362;10.908;2022-09-21T13:30:35;14.90;27.30
2751;DHT22;1383;48.362;10.908;2022-09-21T13:43:59;14.60;27.50
2751;DHT22;1383;48.362;10.908;2022-09-21T13:49:14;14.50;27.30
2751;DHT22;1383;48.362;10.908;2022-09-21T13:52:01;14.60;27.30
2751;DHT22;1383;48.362;10.908;2022-09-21T13:54:54;14.70;26.40
2751;DHT22;1383;48.362;10.908;2022-09-21T14:03:33;14.70;26.80
2751;DHT22;1383;48.362;10.908;2022-09-21T14:08:50;14.80;27.00
2751;DHT22;1383;48.362;10.908;2022-09-21T14:11:28;14.90;27.30
2751;DHT22;1383;48.362;10.908;2022-09-21T14:14:21;14.90;23.90
2751;DHT22;1383;48.362;10.908;2022-09-21T14:16:54;14.90;24.50
2751;DHT22;1383;48.362;10.908;2022-09-21T14:24:45;14.80;24.40
2751;DHT22;1383;48.362;10.908;2022-09-21T14:29:58;14.70;25.40
2751;DHT22;1383;48.362;10.908;2022-09-21T14:32:36;14.70;25.10
2751;DHT22;1383;48.362;10.908;2022-09-21T14:35:19;14.60;24.70
2751;DHT22;1383;48.362;10.908;2022-09-21T14:38:21;14.70;24.50
2751;DHT22;1383;48.362;10.908;2022-09-21T14:40:51;14.80;24.60
2751;DHT22;1383;48.362;10.908;2022-09-21T14:43:23;14.80;25.10
2751;DHT22;1383;48.362;10.908;2022-09-21T14:55:21;14.70;23.80
2751;DHT22;1383;48.362;10.908;2022-09-21T14:58:18;14.70;23.80
2751;DHT22;1383;48.362;10.908;2022-09-21T15:00:47;14.70;24.00
2751;DHT22;1383;48.362;10.908;2022-09-21T15:12:37;14.70;24.80
2751;DHT22;1383;48.362;10.908;2022-09-21T15:15:33;14.70;24.60
2751;DHT22;1383;48.362;10.908;2022-09-21T15:18:16;14.70;25.10
2751;DHT22;1383;48.362;10.908;2022-09-21T15:20:59;14.60;24.80
2751;DHT22;1383;48.362;10.908;2022-09-21T15:23:38;14.60;25.30
2751;DHT22;1383;48.362;10.908;2022-09-21T15:26:09;14.60;24.90
2751;DHT22;1383;48.362;10.908;2022-09-21T15:28:37;14.50;24.10
2751;DHT22;1383;48.362;10.908;2022-09-21T15:31:37;14.50;24.50
2751;DHT22;1383;48.362;10.908;2022-09-21T15:34:06;14.50;24.30
2751;DHT22;1383;48.362;10.908;2022-09-21T15:36:38;14.50;24.30
2751;DHT22;1383;48.362;10.908;2022-09-21T15:39:16;14.50;24.50
2751;DHT22;1383;48.362;10.908;2022-09-21T15:41:46;14.50;24.00
2751;DHT22;1383;48.362;10.908;2022-09-21T15:44:21;14.50;24.20
2751;DHT22;1383;48.362;10.908;2022-09-21T15:46:54;14.50;24.70
2751;DHT22;1383;48.362;10.908;2022-09-21T15:49:28;14.50;24.20
2751;DHT22;1383;48.362;10.908;2022-09-21T15:51:59;14.50;24.80
2751;DHT22;1383;48.362;10.908;2022-09-21T15:54:32;14.50;25.40
2751;DHT22;1383;48.362;10.908;2022-09-21T15:57:02;14.50;25.50
2751;DHT22;1383;48.362;10.908;2022-09-21T15:59:34;14.40;25.60
2751;DHT22;1383;48.362;10.908;2022-09-21T16:02:10;14.40;25.40
2751;DHT22;1383;48.362;10.908;2022-09-21T16:04:45;14.30;25.50
2751;DHT22;1383;48.362;10.908;2022-09-21T16:07:30;14.30;25.70
2751;DHT22;1383;48.362;10.908;2022-09-21T16:09:58;14.20;26.10
2751;DHT22;1383;48.362;10.908;2022-09-21T16:14:52;14.20;25.40
2751;DHT22;1383;48.362;10.908;2022-09-21T16:17:20;14.20;25.50
2751;DHT22;1383;48.362;10.908;2022-09-21T16:24:59;14.10;26.80
2751;DHT22;1383;48.362;10.908;2022-09-21T16:27:29;14.00;27.20
2751;DHT22;1383;48.362;10.908;2022-09-21T16:29:57;13.90;27.40
2751;DHT22;1383;48.362;10.908;2022-09-21T16:32:29;13.90;27.80
2751;DHT22;1383;48.362;10.908;2022-09-21T16:35:23;13.90;28.30
2751;DHT22;1383;48.362;10.908;2022-09-21T16:37:57;13.80;28.80
2751;DHT22;1383;48.362;10.908;2022-09-21T16:40:28;13.70;29.10
2751;DHT22;1383;48.362;10.908;2022-09-21T16:42:55;13.70;29.40
2751;DHT22;1383;48.362;10.908;2022-09-21T16:45:26;13.70;29.70
2751;DHT22;1383;48.362;10.908;2022-09-21T16:47:55;13.70;29.90
2751;DHT22;1383;48.362;10.908;2022-09-21T16:50:23;13.70;30.20
2751;DHT22;1383;48.362;10.908;2022-09-21T16:52:50;13.60;30.30
2751;DHT22;1383;48.362;10.908;2022-09-21T16:55:18;13.60;30.40
2751;DHT22;1383;48.362;10.908;2022-09-21T16:57:46;13.60;30.30
2751;DHT22;1383;48.362;10.908;2022-09-21T17:00:16;13.60;30.00
2751;DHT22;1383;48.362;10.908;2022-09-21T17:02:46;13.60;30.60
2751;DHT22;1383;48.362;10.908;2022-09-21T17:05:14;13.50;30.80
2751;DHT22;1383;48.362;10.908;2022-09-21T17:07:57;13.40;30.60
2751;DHT22;1383;48.362;10.908;2022-09-21T17:10:33;13.30;31.00
2751;DHT22;1383;48.362;10.908;2022-09-21T17:13:02;13.30;31.30
2751;DHT22;1383;48.362;10.908;2022-09-21T17:15:35;13.20;31.80
2751;DHT22;1383;48.362;10.908;2022-09-21T17:18:02;13.20;31.90
2751;DHT22;1383;48.362;10.908;2022-09-21T17:20:36;13.10;32.00
2751;DHT22;1383;48.362;10.908;2022-09-21T17:23:04;13.10;32.10
2751;DHT22;1383;48.362;10.908;2022-09-21T17:25:32;13.00;32.30
2751;DHT22;1383;48.362;10.908;2022-09-21T17:28:09;12.90;32.80
2751;DHT22;1383;48.362;10.908;2022-09-21T17:30:37;12.80;33.10
2751;DHT22;1383;48.362;10.908;2022-09-21T17:33:04;12.70;33.20
2751;DHT22;1383;48.362;10.908;2022-09-21T17:38:05;12.70;33.70
2751;DHT22;1383;48.362;10.908;2022-09-21T17:40:39;12.70;33.80
2751;DHT22;1383;48.362;10.908;2022-09-21T17:46:11;12.60;34.20
2751;DHT22;1383;48.362;10.908;2022-09-21T17:48:41;12.50;34.70
2751;DHT22;1383;48.362;10.908;2022-09-21T17:51:08;12.40;35.10
2751;DHT22;1383;48.362;10.908;2022-09-21T17:53:35;12.40;35.30
2751;DHT22;1383;48.362;10.908;2022-09-21T17:58:55;12.30;35.70
2751;DHT22;1383;48.362;10.908;2022-09-21T18:01:34;12.30;36.00
2751;DHT22;1383;48.362;10.908;2022-09-21T18:04:03;12.30;36.00
2751;DHT22;1383;48.362;10.908;2022-09-21T18:06:31;12.20;36.30
2751;DHT22;1383;48.362;10.908;2022-09-21T18:08:58;12.10;36.70
2751;DHT22;1383;48.362;10.908;2022-09-21T18:25:15;11.80;38.70
2751;DHT22;1383;48.362;10.908;2022-09-21T18:27:45;11.70;39.10
2751;DHT22;1383;48.362;10.908;2022-09-21T18:30:13;11.70;39.40
2751;DHT22;1383;48.362;10.908;2022-09-21T18:38:51;11.50;40.10
2751;DHT22;1383;48.362;10.908;2022-09-21T18:41:33;11.30;40.60
2751;DHT22;1383;48.362;10.908;2022-09-21T18:44:24;11.30;41.00
2751;DHT22;1383;48.362;10.908;2022-09-21T18:47:21;11.30;41.20
2751;DHT22;1383;48.362;10.908;2022-09-21T18:55:50;11.20;42.10
2751;DHT22;1383;48.362;10.908;2022-09-21T18:58:18;11.10;42.20
2751;DHT22;1383;48.362;10.908;2022-09-21T19:00:45;11.10;42.50
2751;DHT22;1383;48.362;10.908;2022-09-21T19:03:14;11.00;42.70
2751;DHT22;1383;48.362;10.908;2022-09-21T19:11:09;10.90;43.20
2751;DHT22;1383;48.362;10.908;2022-09-21T19:16:59;10.80;43.80
2751;DHT22;1383;48.362;10.908;2022-09-21T19:22:58;10.80;44.20
2751;DHT22;1383;48.362;10.908;2022-09-21T19:25:45;10.80;44.30
2751;DHT22;1383;48.362;10.908;2022-09-21T19:31:06;10.80;44.40
2751;DHT22;1383;48.362;10.908;2022-09-21T19:33:34;10.80;44.20
2751;DHT22;1383;48.362;10.908;2022-09-21T19:36:16;10.80;44.40
2751;DHT22;1383;48.362;10.908;2022-09-21T19:38:43;10.70;44.40
2751;DHT22;1383;48.362;10.908;2022-09-21T19:41:33;10.70;44.60
2751;DHT22;1383;48.362;10.908;2022-09-21T19:49:47;10.60;45.00
2751;DHT22;1383;48.362;10.908;2022-09-21T19:52:17;10.50;45.10
2751;DHT22;1383;48.362;10.908;2022-09-21T19:54:45;10.50;45.50
2751;DHT22;1383;48.362;10.908;2022-09-21T19:57:31;10.50;45.40
2751;DHT22;1383;48.362;10.908;2022-09-21T20:00:17;10.50;45.60
2751;DHT22;1383;48.362;10.908;2022-09-21T20:06:23;10.50;45.70
2751;DHT22;1383;48.362;10.908;2022-09-21T20:08:43;10.40;45.80
2751;DHT22;1383;48.362;10.908;2022-09-21T20:13:52;10.20;46.20
2751;DHT22;1383;48.362;10.908;2022-09-21T20:16:36;10.30;46.50
2751;DHT22;1383;48.362;10.908;2022-09-21T20:21:52;10.30;46.30
2751;DHT22;1383;48.362;10.908;2022-09-21T20:24:24;10.20;46.30
2751;DHT22;1383;48.362;10.908;2022-09-21T20:26:53;10.20;46.70
2751;DHT22;1383;48.362;10.908;2022-09-21T20:29:20;10.10;46.70